Time;durP1;ratioP1;P1;durP2;ratioP2;P2;SDS_P1;SDS_P2;PMS_P1;PMS_P2;Temp;Humidity;BMP_temperature;BMP_pressure;BME280_temperature;BME280_humidity;BME280_pressure;Samples;Min_cycle;Max_cycle;Signal;HPM_P1;HPM_P2
2023/10/05 00:01:02;;;;;;;6.70;2.00;;;13.40;99.90;;;;;;5043515;28;20049;-80
2023/10/05 00:03:30;;;;;;;9.65;1.80;;;13.40;99.90;;;;;;5045051;28;20045;-81
2023/10/05 00:06:04;;;;;;;9.88;2.00;;;13.40;99.90;;;;;;5039726;28;20405;-81
2023/10/05 00:08:35;;;;;;;8.90;1.98;;;13.40;99.90;;;;;;5040188;28;20111;-81
2023/10/05 00:11:06;;;;;;;7.35;1.80;;;13.40;99.90;;;;;;5049635;28;20417;-81
2023/10/05 00:13:34;;;;;;;10.88;2.03;;;13.40;99.90;;;;;;5045615;28;20049;-80
2023/10/05 00:16:03;;;;;;;6.32;1.75;;;13.40;99.90;;;;;;5044029;28;20532;-81
2023/10/05 00:18:29;;;;;;;9.07;1.60;;;13.40;99.90;;;;;;5047951;28;20683;-80
2023/10/05 00:20:56;;;;;;;13.73;2.25;;;13.40;99.90;;;;;;5059794;28;20053;-81
2023/10/05 00:23:22;;;;;;;8.35;1.70;;;13.40;99.90;;;;;;5046842;28;20064;-81
2023/10/05 00:25:47;;;;;;;11.70;2.22;;;13.40;99.90;;;;;;5050808;28;20044;-81
2023/10/05 00:28:15;;;;;;;8.13;1.88;;;13.40;99.90;;;;;;5043117;28;20432;-81
2023/10/05 00:30:41;;;;;;;9.57;1.90;;;13.40;99.90;;;;;;5037734;28;20590;-81
2023/10/05 00:33:10;;;;;;;9.13;1.58;;;13.30;99.90;;;;;;5048534;28;20112;-80
2023/10/05 00:35:38;;;;;;;7.13;1.38;;;13.40;99.90;;;;;;5044606;28;20045;-81
2023/10/05 00:38:15;;;;;;;9.88;2.00;;;13.40;99.90;;;;;;5043252;28;20045;-81
2023/10/05 00:40:51;;;;;;;9.90;2.05;;;13.40;99.90;;;;;;5048239;28;20091;-81
2023/10/05 00:45:46;;;;;;;5.35;1.70;;;13.40;99.90;;;;;;5039747;28;20049;-80
2023/10/05 00:48:26;;;;;;;5.90;1.60;;;13.40;99.90;;;;;;5046843;28;20071;-81
2023/10/05 00:50:54;;;;;;;14.48;1.85;;;13.40;99.90;;;;;;5048488;28;20065;-81
2023/10/05 00:53:21;;;;;;;7.57;2.35;;;13.40;99.90;;;;;;5055234;28;20164;-81
2023/10/05 00:56:04;;;;;;;8.95;1.73;;;13.40;99.90;;;;;;5049895;28;20052;-81
2023/10/05 00:58:37;;;;;;;6.97;1.70;;;13.50;99.90;;;;;;5050042;28;20077;-82
2023/10/05 01:01:08;;;;;;;8.05;2.00;;;13.40;99.90;;;;;;5049783;28;20436;-81
2023/10/05 01:03:34;;;;;;;9.70;2.08;;;13.50;99.90;;;;;;5055353;28;20440;-81
2023/10/05 01:06:12;;;;;;;9.43;1.80;;;13.50;99.90;;;;;;5053887;28;20049;-81
2023/10/05 01:08:49;;;;;;;11.07;2.15;;;13.40;99.90;;;;;;5054692;28;20048;-80
2023/10/05 01:11:24;;;;;;;9.25;1.95;;;13.50;99.90;;;;;;5052939;28;20048;-80
2023/10/05 01:14:00;;;;;;;6.20;1.77;;;13.50;99.90;;;;;;5053375;28;20087;-81
2023/10/05 01:16:26;;;;;;;9.40;1.80;;;13.50;99.90;;;;;;5050180;28;20045;-80
2023/10/05 01:18:52;;;;;;;14.07;2.10;;;13.50;99.90;;;;;;5054584;28;20052;-81
2023/10/05 01:21:18;;;;;;;12.52;2.35;;;13.50;99.90;;;;;;5052554;28;20057;-80
2023/10/05 01:23:48;;;;;;;9.15;1.65;;;13.40;99.90;;;;;;5038909;28;20041;-81
2023/10/05 01:26:17;;;;;;;9.18;1.90;;;13.50;99.90;;;;;;5047857;28;20045;-80
2023/10/05 01:28:43;;;;;;;6.38;1.40;;;13.50;99.90;;;;;;5046712;28;20425;-81
2023/10/05 01:31:21;;;;;;;10.07;2.00;;;13.50;99.90;;;;;;5050069;28;21533;-80
2023/10/05 01:33:47;;;;;;;6.60;2.08;;;13.50;99.90;;;;;;5043439;28;20103;-81
2023/10/05 01:36:18;;;;;;;11.10;2.63;;;13.50;99.90;;;;;;5039933;28;20413;-80
2023/10/05 01:38:45;;;;;;;10.55;2.05;;;13.50;99.90;;;;;;5050291;28;20040;-81
2023/10/05 01:41:16;;;;;;;9.50;2.05;;;13.50;99.90;;;;;;5050246;28;20049;-80
2023/10/05 01:43:42;;;;;;;7.28;1.95;;;13.50;99.90;;;;;;5044817;28;20041;-80
2023/10/05 01:46:11;;;;;;;9.82;1.90;;;13.40;99.90;;;;;;5044229;28;20045;-81
2023/10/05 01:48:41;;;;;;;11.80;2.25;;;13.50;99.90;;;;;;5031436;28;20087;-81
2023/10/05 01:51:14;;;;;;;7.32;1.90;;;13.50;99.90;;;;;;5042100;28;20057;-80
2023/10/05 01:53:40;;;;;;;8.18;1.75;;;13.40;99.90;;;;;;5037031;28;20110;-82
2023/10/05 01:56:23;;;;;;;8.68;1.83;;;13.40;99.90;;;;;;5049210;28;20073;-81
2023/10/05 01:58:50;;;;;;;7.65;1.88;;;13.40;99.90;;;;;;5052130;28;20048;-80
2023/10/05 02:01:18;;;;;;;8.38;1.50;;;13.40;99.90;;;;;;5052776;28;20052;-81
2023/10/05 02:03:44;;;;;;;11.90;2.35;;;13.40;99.90;;;;;;5050019;28;20037;-80
2023/10/05 02:06:15;;;;;;;8.45;2.00;;;13.40;99.90;;;;;;5044918;28;20053;-81
2023/10/05 02:08:42;;;;;;;9.60;1.95;;;13.40;99.90;;;;;;5050052;28;20045;-81
2023/10/05 02:11:09;;;;;;;9.50;1.77;;;13.40;99.90;;;;;;5040244;28;20103;-81
2023/10/05 02:13:35;;;;;;;11.70;2.03;;;13.40;99.90;;;;;;5062761;28;20049;-81
2023/10/05 02:16:02;;;;;;;7.05;2.00;;;13.40;99.90;;;;;;5048180;28;20045;-81
2023/10/05 02:18:31;;;;;;;6.20;2.22;;;13.40;99.90;;;;;;5048739;28;20106;-81
2023/10/05 02:21:05;;;;;;;12.10;2.63;;;13.30;99.90;;;;;;5042421;28;20465;-81
2023/10/05 02:23:38;;;;;;;9.10;2.17;;;13.40;99.90;;;;;;5037551;28;20128;-81
2023/10/05 02:26:10;;;;;;;8.35;1.45;;;13.40;99.90;;;;;;5052183;28;20049;-81
2023/10/05 02:28:40;;;;;;;8.75;1.85;;;13.40;99.90;;;;;;5052279;28;20044;-80
2023/10/05 02:31:12;;;;;;;14.57;2.05;;;13.40;99.90;;;;;;5037223;28;20055;-81
2023/10/05 02:33:39;;;;;;;10.70;2.80;;;13.40;99.90;;;;;;5049298;28;20041;-81
2023/10/05 02:36:11;;;;;;;13.93;2.13;;;13.40;99.90;;;;;;5044925;28;20484;-81
2023/10/05 02:38:38;;;;;;;6.72;2.10;;;13.40;99.90;;;;;;5039861;28;20046;-81
2023/10/05 02:41:05;;;;;;;10.32;1.75;;;13.40;99.90;;;;;;5043986;28;20673;-80
2023/10/05 02:43:39;;;;;;;8.07;2.20;;;13.40;99.90;;;;;;5030566;28;20471;-80
2023/10/05 02:46:11;;;;;;;9.35;2.00;;;13.40;99.90;;;;;;5030166;28;20053;-81
2023/10/05 02:48:42;;;;;;;12.60;2.03;;;13.40;99.90;;;;;;5051783;28;20049;-81
2023/10/05 02:51:10;;;;;;;7.85;1.77;;;13.40;99.90;;;;;;5043837;28;20055;-81
2023/10/05 02:53:44;;;;;;;11.93;2.33;;;13.40;99.90;;;;;;5044736;28;20052;-81
2023/10/05 02:56:27;;;;;;;11.10;1.85;;;13.40;99.90;;;;;;5045831;28;20412;-80
2023/10/05 02:59:00;;;;;;;7.80;2.33;;;13.40;99.90;;;;;;5048608;28;20261;-81
2023/10/05 03:01:26;;;;;;;6.78;1.58;;;13.40;99.90;;;;;;5044676;28;20047;-81
2023/10/05 03:03:54;;;;;;;9.32;2.22;;;13.40;99.90;;;;;;5053611;28;20094;-80
2023/10/05 03:06:22;;;;;;;10.48;1.67;;;13.30;99.90;;;;;;5051278;28;20115;-81
2023/10/05 03:08:49;;;;;;;11.48;1.80;;;13.40;99.90;;;;;;5040526;28;20081;-80
2023/10/05 03:11:18;;;;;;;7.85;2.03;;;13.30;99.90;;;;;;5048213;28;20049;-81
2023/10/05 03:13:44;;;;;;;12.57;3.15;;;13.30;99.90;;;;;;5044462;28;20153;-82
2023/10/05 03:16:10;;;;;;;14.43;2.00;;;13.30;99.90;;;;;;5052946;28;20048;-82
2023/10/05 03:18:43;;;;;;;10.82;1.67;;;13.30;99.90;;;;;;5043806;28;20064;-81
2023/10/05 03:21:13;;;;;;;9.63;1.88;;;13.30;99.90;;;;;;5048325;28;20418;-81
2023/10/05 03:23:44;;;;;;;7.50;2.15;;;13.30;99.90;;;;;;5053987;28;20091;-81
2023/10/05 03:26:11;;;;;;;12.20;2.63;;;13.30;99.90;;;;;;5051484;28;20049;-82
2023/10/05 03:28:37;;;;;;;11.45;2.25;;;13.30;99.90;;;;;;5031575;28;20131;-82
2023/10/05 03:31:37;;;;;;;9.15;1.60;;;13.30;99.90;;;;;;5039951;28;20058;-82
2023/10/05 03:34:06;;;;;;;7.70;1.75;;;13.30;99.90;;;;;;5031260;28;20057;-82
2023/10/05 03:36:33;;;;;;;15.82;2.05;;;13.30;99.90;;;;;;5044745;28;20127;-81
2023/10/05 03:39:03;;;;;;;8.40;1.50;;;13.30;99.90;;;;;;5051602;28;20045;-81
2023/10/05 03:41:29;;;;;;;9.95;2.30;;;13.30;99.90;;;;;;5045891;28;20049;-81
2023/10/05 03:43:55;;;;;;;12.55;2.00;;;13.30;99.90;;;;;;5052454;28;20055;-81
2023/10/05 03:46:24;;;;;;;12.43;2.35;;;13.30;99.90;;;;;;5047788;28;20492;-81
2023/10/05 03:48:52;;;;;;;8.70;2.03;;;13.30;99.90;;;;;;5040006;28;20061;-82
2023/10/05 03:51:18;;;;;;;8.30;1.65;;;13.30;99.90;;;;;;5044195;28;20045;-81
2023/10/05 03:53:48;;;;;;;7.60;2.13;;;13.30;99.90;;;;;;5055335;28;20045;-81
2023/10/05 03:56:29;;;;;;;7.78;1.95;;;13.30;99.90;;;;;;5052763;28;20076;-80
2023/10/05 03:59:12;;;;;;;8.30;2.60;;;13.30;99.90;;;;;;5048857;28;20061;-81
2023/10/05 04:01:39;;;;;;;10.38;2.00;;;13.30;99.90;;;;;;5048957;28;20052;-81
2023/10/05 04:04:08;;;;;;;11.98;2.60;;;13.30;99.90;;;;;;5053468;28;20056;-80
2023/10/05 04:06:36;;;;;;;10.07;2.33;;;13.30;99.90;;;;;;5046231;28;20419;-81
2023/10/05 04:09:03;;;;;;;8.00;2.08;;;13.30;99.90;;;;;;5026591;28;20052;-81
2023/10/05 04:11:34;;;;;;;11.00;2.00;;;13.30;99.90;;;;;;5051432;28;20041;-81
2023/10/05 04:14:01;;;;;;;10.40;1.95;;;13.30;99.90;;;;;;5050356;28;20080;-81
2023/10/05 04:16:33;;;;;;;9.73;2.00;;;13.30;99.90;;;;;;5052297;28;20425;-79
2023/10/05 04:18:59;;;;;;;9.15;2.05;;;13.30;99.90;;;;;;5046482;28;20047;-81
2023/10/05 04:21:25;;;;;;;11.65;2.00;;;13.30;99.90;;;;;;5050110;28;20108;-80
2023/10/05 04:23:56;;;;;;;9.60;1.88;;;13.30;99.90;;;;;;5046250;28;20040;-80
2023/10/05 04:26:22;;;;;;;14.00;2.55;;;13.30;99.90;;;;;;5052778;28;20116;-81
2023/10/05 04:28:52;;;;;;;9.18;2.15;;;13.30;99.90;;;;;;5033400;28;20092;-81
2023/10/05 04:31:22;;;;;;;13.20;2.30;;;13.30;99.90;;;;;;5039736;28;20040;-81
2023/10/05 04:33:50;;;;;;;13.40;2.85;;;13.30;99.90;;;;;;5031842;28;20065;-81
2023/10/05 04:36:17;;;;;;;5.82;1.40;;;13.30;99.90;;;;;;5043770;28;20048;-81
2023/10/05 04:38:43;;;;;;;14.07;2.30;;;13.30;99.90;;;;;;5044548;28;20045;-80
2023/10/05 04:41:12;;;;;;;9.82;2.20;;;13.30;99.90;;;;;;5046687;28;20129;-80
2023/10/05 04:43:43;;;;;;;13.55;2.42;;;13.30;99.90;;;;;;5047942;28;20045;-80
2023/10/05 04:46:09;;;;;;;12.65;2.90;;;13.30;99.90;;;;;;5041129;28;20053;-81
2023/10/05 04:48:38;;;;;;;8.70;2.17;;;13.20;99.90;;;;;;5044156;28;20068;-80
2023/10/05 04:51:07;;;;;;;11.05;1.88;;;13.20;99.90;;;;;;5042402;28;20041;-81
2023/10/05 04:53:36;;;;;;;14.25;2.45;;;13.20;99.90;;;;;;5045474;28;20107;-81
2023/10/05 04:56:14;;;;;;;8.60;2.10;;;13.20;99.90;;;;;;5047715;28;20056;-81
2023/10/05 04:58:53;;;;;;;16.83;2.75;;;13.20;99.90;;;;;;5053744;28;20045;-81
2023/10/05 05:01:28;;;;;;;8.95;1.83;;;13.20;99.90;;;;;;5036384;28;20152;-81
2023/10/05 05:03:56;;;;;;;9.18;1.83;;;13.20;99.90;;;;;;5033650;28;20042;-81
2023/10/05 05:06:32;;;;;;;12.13;2.63;;;13.20;99.90;;;;;;5043101;28;20041;-80
2023/10/05 05:08:58;;;;;;;14.88;2.47;;;13.20;99.90;;;;;;5048375;28;20049;-81
2023/10/05 05:11:25;;;;;;;15.93;3.13;;;13.30;99.90;;;;;;5034215;28;20503;-81
2023/10/05 05:13:51;;;;;;;13.30;2.20;;;13.30;99.90;;;;;;5052138;28;20163;-81
2023/10/05 05:16:19;;;;;;;10.90;2.40;;;13.30;99.90;;;;;;5052816;28;20053;-81
2023/10/05 05:18:44;;;;;;;12.43;2.08;;;13.30;99.90;;;;;;5052954;28;20516;-80
2023/10/05 05:21:11;;;;;;;15.73;2.45;;;13.30;99.90;;;;;;5052565;28;20063;-80
2023/10/05 05:23:37;;;;;;;12.27;2.30;;;13.30;99.90;;;;;;5052847;28;20037;-80
2023/10/05 05:26:03;;;;;;;11.73;2.90;;;13.30;99.90;;;;;;5053055;28;20481;-81
2023/10/05 05:28:34;;;;;;;11.70;2.40;;;13.30;99.90;;;;;;5034755;28;20116;-81
2023/10/05 05:31:16;;;;;;;10.90;2.50;;;13.30;99.90;;;;;;5042776;28;20365;-81
2023/10/05 05:33:44;;;;;;;13.55;2.45;;;13.30;99.90;;;;;;5041170;28;20485;-79
2023/10/05 05:36:11;;;;;;;7.88;2.70;;;13.30;99.90;;;;;;5046011;28;20041;-80
2023/10/05 05:38:40;;;;;;;10.05;2.40;;;13.30;99.90;;;;;;5040618;28;20048;-81
2023/10/05 05:41:11;;;;;;;12.18;2.88;;;13.30;99.90;;;;;;5051109;28;20048;-80
2023/10/05 05:43:39;;;;;;;8.65;2.25;;;13.30;99.90;;;;;;5027144;28;20045;-81
2023/10/05 05:46:09;;;;;;;13.38;2.95;;;13.30;99.90;;;;;;5028588;28;20052;-80
2023/10/05 05:48:36;;;;;;;13.63;2.53;;;13.30;99.90;;;;;;5052180;28;20500;-80
2023/10/05 05:51:10;;;;;;;14.02;2.78;;;13.20;99.90;;;;;;5052681;28;20057;-81
2023/10/05 05:53:37;;;;;;;12.50;2.75;;;13.20;99.90;;;;;;5051063;28;20049;-83
2023/10/05 05:56:04;;;;;;;8.70;2.17;;;13.20;99.90;;;;;;5053143;28;20084;-82
2023/10/05 05:58:30;;;;;;;9.98;2.90;;;13.30;99.90;;;;;;5052860;28;20079;-82
2023/10/05 06:00:59;;;;;;;12.00;2.65;;;13.30;99.90;;;;;;5037283;28;20085;-82
2023/10/05 06:03:25;;;;;;;14.32;3.67;;;13.30;99.90;;;;;;5041937;28;20053;-80
2023/10/05 06:05:51;;;;;;;10.35;1.80;;;13.30;99.90;;;;;;5040835;28;20386;-81
2023/10/05 06:08:17;;;;;;;9.32;2.38;;;13.30;99.90;;;;;;5043085;28;20378;-81
2023/10/05 06:10:46;;;;;;;12.70;3.00;;;13.30;99.90;;;;;;5047747;28;20079;-82
2023/10/05 06:13:11;;;;;;;12.85;2.53;;;13.30;99.90;;;;;;5028540;28;20124;-83
2023/10/05 06:15:38;;;;;;;11.68;2.50;;;13.30;99.90;;;;;;5029645;28;20131;-83
2023/10/05 06:18:05;;;;;;;9.68;2.28;;;13.30;99.90;;;;;;5035176;28;20087;-85
2023/10/05 06:20:40;;;;;;;14.90;3.00;;;13.30;99.90;;;;;;5048091;28;20064;-85
2023/10/05 06:23:06;;;;;;;11.90;2.53;;;13.30;99.90;;;;;;5046774;28;20049;-84
2023/10/05 06:25:31;;;;;;;18.70;3.55;;;13.40;99.90;;;;;;5051986;28;20103;-83
2023/10/05 06:27:59;;;;;;;10.77;2.92;;;13.40;99.90;;;;;;5047791;28;20459;-82
2023/10/05 06:30:26;;;;;;;7.63;1.85;;;13.40;99.90;;;;;;5032248;28;20052;-84
2023/10/05 06:32:54;;;;;;;9.60;2.20;;;13.50;99.90;;;;;;5042280;28;20072;-85
2023/10/05 06:35:20;;;;;;;16.05;3.03;;;13.60;99.90;;;;;;5049733;28;20854;-85
2023/10/05 06:37:49;;;;;;;14.32;3.25;;;13.60;99.90;;;;;;5029041;28;20396;-85
2023/10/05 06:40:21;;;;;;;15.38;2.80;;;13.60;99.90;;;;;;5052695;28;20045;-86
2023/10/05 06:42:51;;;;;;;11.93;3.17;;;13.70;99.90;;;;;;5032816;28;20080;-89
2023/10/05 06:45:19;;;;;;;10.40;2.47;;;13.70;99.90;;;;;;5032656;28;20045;-86
2023/10/05 06:47:45;;;;;;;20.17;3.42;;;13.70;99.90;;;;;;5046121;28;20083;-84
2023/10/05 06:50:15;;;;;;;15.40;2.47;;;13.80;99.90;;;;;;5049949;28;20045;-87
2023/10/05 06:52:46;;;;;;;13.23;3.13;;;13.80;99.90;;;;;;5037840;28;20049;-87
2023/10/05 06:55:21;;;;;;;15.63;2.67;;;13.90;99.90;;;;;;5047465;28;20116;-86
2023/10/05 06:57:50;;;;;;;17.10;3.00;;;13.90;99.90;;;;;;5054930;28;20041;-85
2023/10/05 07:00:23;;;;;;;13.40;3.22;;;13.90;99.90;;;;;;5042931;28;20609;-84
2023/10/05 07:03:05;;;;;;;13.25;3.58;;;14.00;99.90;;;;;;5055066;28;20450;-86
2023/10/05 07:05:32;;;;;;;8.25;2.58;;;14.00;99.90;;;;;;5055628;28;20099;-86
2023/10/05 07:07:58;;;;;;;18.67;2.90;;;14.00;99.90;;;;;;5051890;28;20053;-86
2023/10/05 07:10:24;;;;;;;12.57;2.80;;;14.00;99.90;;;;;;5036522;28;20513;-87
2023/10/05 07:12:53;;;;;;;19.15;3.13;;;14.10;99.90;;;;;;5035747;28;20087;-87
2023/10/05 07:15:20;;;;;;;9.27;2.35;;;14.10;99.90;;;;;;5027574;28;20050;-85
2023/10/05 07:17:48;;;;;;;13.20;3.00;;;14.20;99.90;;;;;;5051758;28;20183;-87
2023/10/05 07:20:16;;;;;;;10.98;2.95;;;14.20;99.90;;;;;;5035447;28;20064;-87
2023/10/05 07:22:47;;;;;;;12.93;3.10;;;14.30;99.90;;;;;;5052871;28;20056;-85
2023/10/05 07:25:18;;;;;;;14.23;2.88;;;14.30;99.90;;;;;;5051265;28;20527;-84
2023/10/05 07:27:44;;;;;;;11.68;3.45;;;14.40;99.90;;;;;;5052111;28;20057;-87
2023/10/05 07:30:10;;;;;;;17.05;3.17;;;14.40;99.90;;;;;;5051471;28;20514;-84
2023/10/05 07:32:37;;;;;;;10.82;2.58;;;14.40;99.90;;;;;;5036093;28;20055;-86
2023/10/05 07:35:06;;;;;;;16.52;2.75;;;14.50;99.90;;;;;;5050484;28;20465;-87
2023/10/05 07:37:33;;;;;;;15.18;3.05;;;14.50;99.90;;;;;;5051513;28;20432;-87
2023/10/05 07:39:59;;;;;;;15.05;3.20;;;14.50;99.90;;;;;;5052703;28;20048;-86
2023/10/05 07:42:26;;;;;;;16.42;3.40;;;14.50;99.90;;;;;;5050606;28;20045;-84
2023/10/05 07:44:51;;;;;;;11.68;3.25;;;14.60;99.90;;;;;;5050543;28;20429;-86
2023/10/05 07:47:21;;;;;;;16.17;3.25;;;14.70;99.90;;;;;;5050301;28;20049;-85
2023/10/05 07:49:47;;;;;;;11.68;2.75;;;14.60;99.90;;;;;;5052389;28;20124;-86
2023/10/05 07:52:14;;;;;;;18.63;3.47;;;14.70;99.90;;;;;;5051506;28;20136;-87
2023/10/05 07:54:40;;;;;;;17.20;3.35;;;14.60;99.90;;;;;;5051625;28;20045;-86
2023/10/05 07:57:10;;;;;;;10.80;3.47;;;14.60;99.90;;;;;;5050642;28;20373;-86
2023/10/05 07:59:41;;;;;;;17.73;3.83;;;14.70;99.90;;;;;;5052587;28;20481;-87
2023/10/05 08:02:08;;;;;;;12.88;3.00;;;14.70;99.90;;;;;;5054767;28;20124;-87
2023/10/05 08:04:35;;;;;;;15.23;3.15;;;14.70;99.90;;;;;;5039081;28;20092;-87
2023/10/05 08:07:02;;;;;;;13.52;3.47;;;14.70;99.90;;;;;;5039232;28;20041;-87
2023/10/05 08:09:29;;;;;;;11.25;2.38;;;14.70;99.90;;;;;;5056049;28;20378;-87
2023/10/05 08:11:56;;;;;;;15.18;3.92;;;14.70;99.90;;;;;;5054925;28;20408;-86
2023/10/05 08:14:24;;;;;;;13.05;3.75;;;14.70;99.90;;;;;;5055788;28;20554;-87
2023/10/05 08:16:50;;;;;;;13.32;3.63;;;14.70;99.90;;;;;;5057719;28;20072;-87
2023/10/05 08:19:19;;;;;;;12.68;3.40;;;14.70;99.90;;;;;;5056551;28;20072;-86
2023/10/05 08:21:45;;;;;;;17.20;4.03;;;14.70;99.90;;;;;;5057778;28;20110;-85
2023/10/05 08:24:14;;;;;;;14.52;2.97;;;14.70;99.90;;;;;;5056487;28;20044;-87
2023/10/05 08:26:45;;;;;;;15.85;3.20;;;14.70;99.90;;;;;;5056420;28;20346;-87
2023/10/05 08:29:11;;;;;;;14.27;3.30;;;14.70;99.90;;;;;;5043135;28;20132;-83
2023/10/05 08:31:37;;;;;;;14.77;3.22;;;14.80;99.90;;;;;;5041799;28;20460;-86
2023/10/05 08:34:03;;;;;;;10.25;2.85;;;14.80;99.90;;;;;;5056208;28;20127;-81
2023/10/05 08:36:33;;;;;;;14.93;3.25;;;14.80;99.90;;;;;;5056394;28;20101;-87
2023/10/05 08:39:00;;;;;;;11.10;3.65;;;14.90;99.90;;;;;;5071739;28;20044;-86
2023/10/05 08:41:36;;;;;;;16.90;4.03;;;14.90;99.90;;;;;;5073179;28;20045;-86
2023/10/05 08:44:10;;;;;;;12.35;3.30;;;14.90;99.90;;;;;;5037903;28;20041;-87
2023/10/05 08:46:43;;;;;;;17.90;3.90;;;14.90;99.90;;;;;;5054841;28;20091;-87
2023/10/05 08:49:12;;;;;;;11.88;3.60;;;14.90;99.90;;;;;;5056282;28;20041;-87
2023/10/05 08:51:39;;;;;;;7.93;2.58;;;14.90;99.90;;;;;;5056678;28;20071;-86
2023/10/05 08:54:13;;;;;;;10.90;3.08;;;14.90;99.90;;;;;;5055839;28;20049;-86
2023/10/05 08:56:47;;;;;;;16.02;4.00;;;14.90;99.90;;;;;;5055753;28;20052;-83
2023/10/05 08:59:19;;;;;;;15.93;3.35;;;14.90;99.90;;;;;;5056562;28;20057;-86
2023/10/05 09:01:50;;;;;;;16.48;3.55;;;14.90;99.90;;;;;;5055415;28;20057;-87
2023/10/05 09:06:49;;;;;;;12.65;3.08;;;15.00;99.90;;;;;;5054959;28;20159;-85
2023/10/05 09:09:38;;;;;;;13.30;3.00;;;15.00;99.90;;;;;;5056241;28;20098;-86
2023/10/05 09:12:34;;;;;;;11.52;3.17;;;15.10;99.90;;;;;;5055501;28;20091;-87
2023/10/05 09:18:17;;;;;;;14.02;2.80;;;15.30;99.90;;;;;;5051259;28;20048;-87
2023/10/05 09:20:48;;;;;;;17.73;3.40;;;15.30;99.90;;;;;;5055699;28;20056;-87
2023/10/05 09:23:20;;;;;;;12.77;3.78;;;15.40;99.90;;;;;;5055815;28;20080;-86
2023/10/05 09:25:46;;;;;;;15.85;4.15;;;15.40;99.90;;;;;;5055675;28;20408;-87
2023/10/05 09:28:28;;;;;;;14.43;2.95;;;15.50;99.90;;;;;;5055592;28;20037;-87
2023/10/05 09:31:07;;;;;;;13.43;4.78;;;15.50;99.90;;;;;;5054428;28;20052;-87
2023/10/05 09:33:35;;;;;;;13.35;3.83;;;15.50;99.90;;;;;;5023608;28;20061;-87
2023/10/05 09:36:22;;;;;;;12.23;3.75;;;15.60;99.90;;;;;;5035945;28;20652;-87
2023/10/05 09:38:48;;;;;;;12.98;3.30;;;15.60;99.90;;;;;;5055640;28;20049;-88
2023/10/05 09:41:19;;;;;;;14.68;4.18;;;15.60;99.90;;;;;;5038487;28;20079;-86
2023/10/05 09:44:07;;;;;;;12.70;3.28;;;15.70;99.90;;;;;;5055001;28;20064;-86
2023/10/05 09:46:37;;;;;;;9.98;2.90;;;15.60;99.90;;;;;;5042798;28;20047;-82
2023/10/05 09:49:05;;;;;;;14.98;3.25;;;15.60;99.90;;;;;;5054972;28;20574;-87
2023/10/05 09:51:34;;;;;;;10.70;2.88;;;15.60;99.90;;;;;;5048914;28;20079;-83
2023/10/05 09:54:01;;;;;;;8.52;2.55;;;15.60;99.90;;;;;;5064921;28;20068;-86
2023/10/05 09:56:27;;;;;;;9.45;2.47;;;15.70;99.90;;;;;;5060305;28;20097;-87
2023/10/05 09:58:58;;;;;;;8.75;2.67;;;15.70;99.90;;;;;;5042663;28;20053;-87
2023/10/05 10:01:25;;;;;;;9.10;2.65;;;15.80;99.90;;;;;;5029681;28;20045;-87
2023/10/05 10:03:55;;;;;;;6.72;2.65;;;15.90;99.90;;;;;;5038764;28;20175;-88
2023/10/05 10:06:28;;;;;;;11.27;3.15;;;16.00;99.90;;;;;;5053968;28;20048;-86
2023/10/05 10:09:10;;;;;;;11.60;2.67;;;16.00;99.90;;;;;;5055918;28;20075;-86
2023/10/05 10:11:36;;;;;;;9.88;2.70;;;16.20;99.90;;;;;;5055448;28;20500;-86
2023/10/05 10:14:06;;;;;;;6.60;2.10;;;16.20;99.90;;;;;;5054345;28;20052;-86
2023/10/05 10:16:33;;;;;;;9.38;2.42;;;16.30;99.90;;;;;;5037257;28;20072;-87
2023/10/05 10:19:19;;;;;;;8.75;2.30;;;16.30;99.90;;;;;;5047236;28;20044;-87
2023/10/05 10:21:57;;;;;;;9.13;2.45;;;16.30;99.90;;;;;;5038589;28;20049;-85
2023/10/05 10:24:29;;;;;;;8.30;2.38;;;16.30;99.90;;;;;;5053614;28;20052;-88
2023/10/05 10:27:11;;;;;;;8.30;2.28;;;16.40;99.90;;;;;;5050970;28;20042;-84
2023/10/05 10:29:42;;;;;;;10.45;2.65;;;16.40;99.90;;;;;;5042727;28;20053;-87
2023/10/05 10:32:22;;;;;;;7.47;2.03;;;16.40;99.90;;;;;;5044955;28;20045;-87
2023/10/05 10:34:55;;;;;;;6.95;2.15;;;16.50;99.90;;;;;;5053583;28;20136;-85
2023/10/05 10:37:42;;;;;;;10.93;2.75;;;16.50;99.90;;;;;;5038217;28;20513;-85
2023/10/05 10:45:33;;;;;;;12.52;2.78;;;16.50;99.90;;;;;;5047657;28;20519;-85
2023/10/05 10:48:00;;;;;;;10.43;3.13;;;16.40;99.90;;;;;;5033936;28;20512;-87
2023/10/05 10:50:35;;;;;;;9.98;3.03;;;16.30;99.90;;;;;;5048531;28;20488;-86
2023/10/05 10:53:17;;;;;;;9.32;2.72;;;16.30;99.90;;;;;;5053256;28;20060;-85
2023/10/05 10:55:58;;;;;;;12.73;3.03;;;16.30;99.90;;;;;;5051124;28;20041;-84
2023/10/05 10:58:25;;;;;;;13.48;3.80;;;16.30;99.90;;;;;;5042429;28;20045;-84
2023/10/05 11:00:56;;;;;;;13.07;3.47;;;16.30;99.90;;;;;;5037840;28;20072;-85
2023/10/05 11:03:26;;;;;;;15.93;3.38;;;16.40;99.90;;;;;;5040164;28;20048;-82
2023/10/05 11:05:54;;;;;;;10.90;3.25;;;16.50;99.90;;;;;;5049288;28;20044;-82
2023/10/05 11:08:20;;;;;;;11.95;3.38;;;16.70;99.90;;;;;;5050908;28;20049;-86
2023/10/05 11:11:09;;;;;;;10.18;3.05;;;16.80;99.90;;;;;;5048732;28;20128;-84
2023/10/05 11:14:07;;;;;;;9.27;2.13;;;16.90;99.90;;;;;;5050066;28;20128;-83
2023/10/05 11:16:43;;;;;;;11.65;2.83;;;16.90;99.90;;;;;;5040578;28;20142;-83
2023/10/05 11:19:15;;;;;;;6.13;1.98;;;16.90;99.90;;;;;;5040421;28;20055;-83
2023/10/05 11:21:48;;;;;;;7.28;1.77;;;17.00;99.90;;;;;;5049759;28;20090;-83
2023/10/05 11:24:16;;;;;;;7.30;1.60;;;17.20;99.90;;;;;;5047154;28;20048;-85
2023/10/05 11:29:28;;;;;;;9.60;2.30;;;17.50;99.90;;;;;;5050363;28;20072;-84
2023/10/05 11:32:01;;;;;;;10.05;2.35;;;17.50;99.90;;;;;;5050332;28;20045;-83
2023/10/05 11:34:29;;;;;;;9.63;2.47;;;17.60;99.90;;;;;;5050421;28;20045;-81
2023/10/05 11:36:58;;;;;;;8.65;1.83;;;17.80;99.90;;;;;;5054963;28;20080;-83
2023/10/05 11:39:27;;;;;;;7.60;1.80;;;17.90;99.90;;;;;;5053210;28;20139;-82
2023/10/05 11:41:56;;;;;;;11.23;2.25;;;18.00;99.90;;;;;;5052951;28;20110;-83
2023/10/05 11:44:27;;;;;;;11.70;2.35;;;18.00;99.90;;;;;;5045521;28;20045;-82
2023/10/05 11:46:57;;;;;;;12.63;2.65;;;18.00;99.90;;;;;;5053242;28;20562;-83
2023/10/05 11:49:30;;;;;;;10.50;2.58;;;17.90;99.90;;;;;;5045413;28;20070;-84
2023/10/05 11:51:58;;;;;;;8.93;2.55;;;17.80;99.90;;;;;;5055014;28;20044;-82
2023/10/05 11:54:24;;;;;;;9.13;2.05;;;17.70;99.90;;;;;;5053265;28;20415;-83
2023/10/05 11:56:53;;;;;;;13.52;2.60;;;17.70;99.90;;;;;;5053708;28;20045;-84
2023/10/05 11:59:28;;;;;;;10.57;2.47;;;17.80;99.90;;;;;;5054697;28;20049;-83
2023/10/05 12:01:54;;;;;;;8.02;2.13;;;17.90;99.90;;;;;;5053879;28;20530;-83
2023/10/05 12:04:20;;;;;;;9.07;2.05;;;18.00;99.90;;;;;;5035656;28;20057;-83
2023/10/05 12:06:47;;;;;;;11.60;2.03;;;18.10;99.90;;;;;;5051110;28;20051;-83
2023/10/05 12:09:27;;;;;;;12.50;2.50;;;18.10;99.90;;;;;;5053397;28;20573;-85
2023/10/05 12:11:58;;;;;;;10.50;2.65;;;18.20;99.90;;;;;;5039266;28;20053;-83
2023/10/05 12:14:27;;;;;;;9.40;2.42;;;18.10;99.90;;;;;;5054422;28;20048;-85
2023/10/05 12:16:56;;;;;;;7.43;2.22;;;18.10;99.90;;;;;;5052787;28;20170;-83
2023/10/05 12:19:28;;;;;;;6.68;1.85;;;17.90;99.90;;;;;;5034341;28;20045;-84
2023/10/05 12:21:55;;;;;;;6.85;1.63;;;17.80;99.90;;;;;;5049532;28;20522;-82
2023/10/05 12:24:21;;;;;;;7.75;2.22;;;17.70;99.90;;;;;;5052035;28;20059;-84
2023/10/05 12:26:51;;;;;;;11.10;1.98;;;17.50;99.90;;;;;;5054311;28;20507;-82
2023/10/05 12:29:17;;;;;;;6.75;2.22;;;17.40;99.90;;;;;;5049351;28;20087;-85
2023/10/05 12:31:44;;;;;;;8.15;2.25;;;17.20;99.90;;;;;;5036745;28;20037;-84
2023/10/05 12:34:15;;;;;;;11.02;2.45;;;17.10;99.90;;;;;;5052561;28;20477;-85
2023/10/05 12:36:54;;;;;;;8.45;2.40;;;17.00;99.90;;;;;;5049605;28;20044;-83
2023/10/05 12:39:21;;;;;;;13.45;2.47;;;16.90;99.90;;;;;;5053211;28;20049;-83
2023/10/05 12:41:50;;;;;;;8.90;2.22;;;16.90;99.90;;;;;;5054301;28;20041;-82
2023/10/05 12:44:17;;;;;;;9.75;2.42;;;16.80;99.90;;;;;;5054260;28;20111;-83
2023/10/05 12:46:45;;;;;;;9.98;3.10;;;16.80;99.90;;;;;;5052761;28;20515;-83
2023/10/05 12:49:13;;;;;;;13.05;3.00;;;16.80;99.90;;;;;;5053321;28;20602;-83
2023/10/05 12:51:41;;;;;;;10.25;2.75;;;16.80;99.90;;;;;;5052452;28;20044;-83
2023/10/05 12:54:18;;;;;;;10.77;2.75;;;16.80;99.90;;;;;;5052610;28;20115;-83
2023/10/05 12:56:49;;;;;;;11.60;3.05;;;16.80;99.90;;;;;;5054233;28;20049;-83
2023/10/05 12:59:18;;;;;;;7.63;2.42;;;16.80;99.90;;;;;;5053911;28;20084;-82
2023/10/05 13:01:46;;;;;;;8.82;2.20;;;16.80;99.90;;;;;;5050425;28;20052;-82
2023/10/05 13:04:13;;;;;;;11.27;3.08;;;16.90;99.90;;;;;;5047200;28;20045;-80
2023/10/05 13:06:40;;;;;;;13.43;2.88;;;16.90;99.90;;;;;;5053539;28;20049;-82
2023/10/05 13:09:11;;;;;;;7.80;2.50;;;16.90;99.90;;;;;;5037624;28;20086;-79
2023/10/05 13:11:39;;;;;;;9.73;2.42;;;16.90;99.90;;;;;;5052763;28;20119;-82